sensor_id;sensor_type;location;lat;lon;timestamp;P1;durP1;ratioP1;P2;durP2;ratioP2
41568;SDS011;27283;52.504;13.358;2022-09-09T00:01:04;34.53;;;18.63;;
41568;SDS011;27283;52.504;13.358;2022-09-09T00:03:53;40.72;;;20.52;;
41568;SDS011;27283;52.504;13.358;2022-09-09T00:06:33;35.30;;;18.67;;
41568;SDS011;27283;52.504;13.358;2022-09-09T00:09:06;40.35;;;19.15;;
41568;SDS011;27283;52.504;13.358;2022-09-09T00:11:43;39.83;;;20.15;;
41568;SDS011;27283;52.504;13.358;2022-09-09T00:14:26;42.15;;;19.33;;
41568;SDS011;27283;52.504;13.358;2022-09-09T00:17:08;37.72;;;18.90;;
41568;SDS011;27283;52.504;13.358;2022-09-09T00:19:49;36.75;;;19.13;;
41568;SDS011;27283;52.504;13.358;2022-09-09T00:22:29;42.03;;;20.40;;
41568;SDS011;27283;52.504;13.358;2022-09-09T00:25:08;41.58;;;20.10;;
41568;SDS011;27283;52.504;13.358;2022-09-09T00:27:45;36.90;;;19.38;;
41568;SDS011;27283;52.504;13.358;2022-09-09T00:30:19;38.67;;;19.73;;
41568;SDS011;27283;52.504;13.358;2022-09-09T00:32:54;38.78;;;19.50;;
41568;SDS011;27283;52.504;13.358;2022-09-09T00:35:33;36.00;;;18.25;;
41568;SDS011;27283;52.504;13.358;2022-09-09T00:38:10;35.55;;;18.52;;
41568;SDS011;27283;52.504;13.358;2022-09-09T00:40:48;37.50;;;18.38;;
41568;SDS011;27283;52.504;13.358;2022-09-09T00:43:24;37.72;;;18.83;;
41568;SDS011;27283;52.504;13.358;2022-09-09T00:46:11;32.92;;;18.02;;
41568;SDS011;27283;52.504;13.358;2022-09-09T00:49:21;35.22;;;18.85;;
41568;SDS011;27283;52.504;13.358;2022-09-09T00:52:11;43.88;;;20.15;;
41568;SDS011;27283;52.504;13.358;2022-09-09T00:54:55;38.63;;;18.85;;
41568;SDS011;27283;52.504;13.358;2022-09-09T00:57:36;41.50;;;19.20;;
41568;SDS011;27283;52.504;13.358;2022-09-09T01:00:20;38.55;;;20.05;;
41568;SDS011;27283;52.504;13.358;2022-09-09T01:03:02;42.55;;;19.63;;
41568;SDS011;27283;52.504;13.358;2022-09-09T01:05:46;41.17;;;20.30;;
41568;SDS011;27283;52.504;13.358;2022-09-09T01:08:31;41.30;;;19.23;;
41568;SDS011;27283;52.504;13.358;2022-09-09T01:11:23;39.70;;;19.60;;
41568;SDS011;27283;52.504;13.358;2022-09-09T01:14:00;41.03;;;19.50;;
41568;SDS011;27283;52.504;13.358;2022-09-09T01:16:41;49.75;;;21.10;;
41568;SDS011;27283;52.504;13.358;2022-09-09T01:19:16;39.72;;;18.60;;
41568;SDS011;27283;52.504;13.358;2022-09-09T01:21:56;35.10;;;18.92;;
41568;SDS011;27283;52.504;13.358;2022-09-09T01:24:46;34.55;;;18.20;;
41568;SDS011;27283;52.504;13.358;2022-09-09T01:27:46;38.28;;;19.30;;
41568;SDS011;27283;52.504;13.358;2022-09-09T01:30:22;35.60;;;19.10;;
41568;SDS011;27283;52.504;13.358;2022-09-09T01:32:56;42.15;;;19.88;;
41568;SDS011;27283;52.504;13.358;2022-09-09T01:35:37;34.25;;;18.55;;
41568;SDS011;27283;52.504;13.358;2022-09-09T01:38:35;37.10;;;18.58;;
41568;SDS011;27283;52.504;13.358;2022-09-09T01:41:08;38.35;;;18.50;;
41568;SDS011;27283;52.504;13.358;2022-09-09T01:43:43;35.58;;;18.27;;
41568;SDS011;27283;52.504;13.358;2022-09-09T01:46:16;32.45;;;17.70;;
41568;SDS011;27283;52.504;13.358;2022-09-09T01:48:50;35.92;;;17.88;;
41568;SDS011;27283;52.504;13.358;2022-09-09T01:51:24;39.33;;;19.05;;
41568;SDS011;27283;52.504;13.358;2022-09-09T01:53:56;35.80;;;18.05;;
41568;SDS011;27283;52.504;13.358;2022-09-09T01:56:33;35.42;;;17.95;;
41568;SDS011;27283;52.504;13.358;2022-09-09T01:59:21;34.53;;;17.10;;
41568;SDS011;27283;52.504;13.358;2022-09-09T02:02:04;40.30;;;19.15;;
41568;SDS011;27283;52.504;13.358;2022-09-09T02:04:41;32.70;;;17.33;;
41568;SDS011;27283;52.504;13.358;2022-09-09T02:07:20;38.55;;;18.17;;
41568;SDS011;27283;52.504;13.358;2022-09-09T02:13:02;39.58;;;18.33;;
41568;SDS011;27283;52.504;13.358;2022-09-09T02:15:43;35.72;;;17.58;;
41568;SDS011;27283;52.504;13.358;2022-09-09T02:18:25;34.63;;;17.52;;
41568;SDS011;27283;52.504;13.358;2022-09-09T02:21:02;36.17;;;17.13;;
41568;SDS011;27283;52.504;13.358;2022-09-09T02:23:35;31.27;;;16.52;;
41568;SDS011;27283;52.504;13.358;2022-09-09T02:26:09;30.40;;;16.52;;
41568;SDS011;27283;52.504;13.358;2022-09-09T02:28:48;30.70;;;16.48;;
41568;SDS011;27283;52.504;13.358;2022-09-09T02:31:25;36.00;;;17.27;;
41568;SDS011;27283;52.504;13.358;2022-09-09T02:33:58;32.80;;;16.40;;
41568;SDS011;27283;52.504;13.358;2022-09-09T02:36:32;33.35;;;16.50;;
41568;SDS011;27283;52.504;13.358;2022-09-09T02:39:08;29.33;;;15.73;;
41568;SDS011;27283;52.504;13.358;2022-09-09T02:41:41;33.17;;;16.20;;
41568;SDS011;27283;52.504;13.358;2022-09-09T02:44:14;30.13;;;16.15;;
41568;SDS011;27283;52.504;13.358;2022-09-09T02:46:58;32.13;;;15.82;;
41568;SDS011;27283;52.504;13.358;2022-09-09T02:49:47;30.02;;;15.55;;
41568;SDS011;27283;52.504;13.358;2022-09-09T02:52:32;30.33;;;15.27;;
41568;SDS011;27283;52.504;13.358;2022-09-09T02:55:16;31.02;;;15.68;;
41568;SDS011;27283;52.504;13.358;2022-09-09T02:57:52;30.48;;;16.10;;
41568;SDS011;27283;52.504;13.358;2022-09-09T03:00:27;30.80;;;15.95;;
41568;SDS011;27283;52.504;13.358;2022-09-09T03:03:01;33.80;;;16.88;;
41568;SDS011;27283;52.504;13.358;2022-09-09T03:05:34;32.03;;;15.93;;
41568;SDS011;27283;52.504;13.358;2022-09-09T03:08:05;32.90;;;16.90;;
41568;SDS011;27283;52.504;13.358;2022-09-09T03:10:37;29.38;;;16.10;;
41568;SDS011;27283;52.504;13.358;2022-09-09T03:13:09;35.85;;;17.48;;
41568;SDS011;27283;52.504;13.358;2022-09-09T03:15:43;29.75;;;15.75;;
41568;SDS011;27283;52.504;13.358;2022-09-09T03:18:17;32.72;;;16.00;;
41568;SDS011;27283;52.504;13.358;2022-09-09T03:20:50;28.23;;;15.70;;
41568;SDS011;27283;52.504;13.358;2022-09-09T03:23:22;30.67;;;15.85;;
41568;SDS011;27283;52.504;13.358;2022-09-09T03:25:54;30.83;;;15.20;;
41568;SDS011;27283;52.504;13.358;2022-09-09T03:28:27;27.73;;;14.68;;
41568;SDS011;27283;52.504;13.358;2022-09-09T03:30:59;26.85;;;14.55;;
41568;SDS011;27283;52.504;13.358;2022-09-09T03:33:33;28.15;;;14.38;;
41568;SDS011;27283;52.504;13.358;2022-09-09T03:36:05;25.85;;;14.35;;
41568;SDS011;27283;52.504;13.358;2022-09-09T03:38:37;28.65;;;15.30;;
41568;SDS011;27283;52.504;13.358;2022-09-09T03:41:09;26.05;;;14.27;;
41568;SDS011;27283;52.504;13.358;2022-09-09T03:43:40;30.98;;;14.95;;
41568;SDS011;27283;52.504;13.358;2022-09-09T03:46:13;28.98;;;14.65;;
41568;SDS011;27283;52.504;13.358;2022-09-09T03:48:49;31.58;;;14.63;;
41568;SDS011;27283;52.504;13.358;2022-09-09T03:51:22;24.90;;;14.30;;
41568;SDS011;27283;52.504;13.358;2022-09-09T03:53:55;26.20;;;14.77;;
41568;SDS011;27283;52.504;13.358;2022-09-09T03:56:29;26.77;;;15.15;;
41568;SDS011;27283;52.504;13.358;2022-09-09T03:59:03;34.00;;;15.73;;
41568;SDS011;27283;52.504;13.358;2022-09-09T04:01:37;26.38;;;14.88;;
41568;SDS011;27283;52.504;13.358;2022-09-09T04:04:14;26.85;;;14.35;;
41568;SDS011;27283;52.504;13.358;2022-09-09T04:06:48;30.17;;;15.57;;
41568;SDS011;27283;52.504;13.358;2022-09-09T04:09:21;27.20;;;14.88;;
41568;SDS011;27283;52.504;13.358;2022-09-09T04:11:56;27.65;;;15.50;;
41568;SDS011;27283;52.504;13.358;2022-09-09T04:14:27;25.23;;;14.23;;
41568;SDS011;27283;52.504;13.358;2022-09-09T04:16:59;32.05;;;15.70;;
41568;SDS011;27283;52.504;13.358;2022-09-09T04:19:36;26.00;;;14.68;;
41568;SDS011;27283;52.504;13.358;2022-09-09T04:22:09;26.35;;;14.63;;
41568;SDS011;27283;52.504;13.358;2022-09-09T04:24:42;25.25;;;14.75;;
41568;SDS011;27283;52.504;13.358;2022-09-09T06:38:18;11.75;;;5.85;;
41568;SDS011;27283;52.504;13.358;2022-09-09T06:40:52;11.15;;;6.00;;
41568;SDS011;27283;52.504;13.358;2022-09-09T06:43:26;10.20;;;5.50;;
41568;SDS011;27283;52.504;13.358;2022-09-09T06:45:59;11.38;;;5.68;;
41568;SDS011;27283;52.504;13.358;2022-09-09T06:48:33;10.48;;;4.95;;
41568;SDS011;27283;52.504;13.358;2022-09-09T06:51:07;11.00;;;5.50;;
41568;SDS011;27283;52.504;13.358;2022-09-09T06:53:45;10.20;;;5.50;;
41568;SDS011;27283;52.504;13.358;2022-09-09T06:56:19;13.82;;;6.30;;
41568;SDS011;27283;52.504;13.358;2022-09-09T06:58:53;10.43;;;4.13;;
41568;SDS011;27283;52.504;13.358;2022-09-09T07:01:28;5.97;;;4.28;;
41568;SDS011;27283;52.504;13.358;2022-09-09T07:04:02;8.27;;;4.13;;
41568;SDS011;27283;52.504;13.358;2022-09-09T07:06:37;7.30;;;3.55;;
41568;SDS011;27283;52.504;13.358;2022-09-09T07:09:14;9.65;;;3.38;;
41568;SDS011;27283;52.504;13.358;2022-09-09T07:12:00;8.55;;;3.58;;
41568;SDS011;27283;52.504;13.358;2022-09-09T07:15:43;7.13;;;3.30;;
41568;SDS011;27283;52.504;13.358;2022-09-09T07:18:50;7.65;;;3.80;;
41568;SDS011;27283;52.504;13.358;2022-09-09T07:22:31;6.57;;;3.47;;
41568;SDS011;27283;52.504;13.358;2022-09-09T07:25:43;8.60;;;2.90;;
41568;SDS011;27283;52.504;13.358;2022-09-09T07:32:15;5.43;;;2.50;;
41568;SDS011;27283;52.504;13.358;2022-09-09T07:35:28;5.53;;;2.70;;
41568;SDS011;27283;52.504;13.358;2022-09-09T07:38:02;10.95;;;2.75;;
41568;SDS011;27283;52.504;13.358;2022-09-09T07:41:08;6.50;;;2.80;;
41568;SDS011;27283;52.504;13.358;2022-09-09T07:43:53;9.98;;;2.75;;
41568;SDS011;27283;52.504;13.358;2022-09-09T07:46:32;8.07;;;2.88;;
41568;SDS011;27283;52.504;13.358;2022-09-09T07:49:11;6.97;;;2.45;;
41568;SDS011;27283;52.504;13.358;2022-09-09T07:52:36;8.52;;;2.88;;
41568;SDS011;27283;52.504;13.358;2022-09-09T07:55:27;7.72;;;2.67;;
41568;SDS011;27283;52.504;13.358;2022-09-09T07:58:02;7.47;;;2.40;;
41568;SDS011;27283;52.504;13.358;2022-09-09T08:00:34;8.85;;;1.98;;
41568;SDS011;27283;52.504;13.358;2022-09-09T08:03:58;7.28;;;2.50;;
41568;SDS011;27283;52.504;13.358;2022-09-09T08:06:33;5.15;;;2.03;;
41568;SDS011;27283;52.504;13.358;2022-09-09T08:09:33;10.23;;;2.42;;
41568;SDS011;27283;52.504;13.358;2022-09-09T08:12:05;7.20;;;1.98;;
41568;SDS011;27283;52.504;13.358;2022-09-09T08:18:52;5.35;;;2.03;;
41568;SDS011;27283;52.504;13.358;2022-09-09T08:21:26;6.53;;;2.00;;
41568;SDS011;27283;52.504;13.358;2022-09-09T08:24:00;6.15;;;2.10;;
41568;SDS011;27283;52.504;13.358;2022-09-09T08:26:34;5.15;;;1.90;;
41568;SDS011;27283;52.504;13.358;2022-09-09T08:29:23;4.45;;;1.95;;
41568;SDS011;27283;52.504;13.358;2022-09-09T08:31:57;5.20;;;2.25;;
41568;SDS011;27283;52.504;13.358;2022-09-09T08:38:17;7.30;;;1.95;;
41568;SDS011;27283;52.504;13.358;2022-09-09T08:41:25;7.40;;;2.08;;
41568;SDS011;27283;52.504;13.358;2022-09-09T08:44:55;5.28;;;1.90;;
41568;SDS011;27283;52.504;13.358;2022-09-09T08:48:14;7.45;;;1.83;;
41568;SDS011;27283;52.504;13.358;2022-09-09T08:51:36;6.32;;;1.85;;
41568;SDS011;27283;52.504;13.358;2022-09-09T08:54:33;7.72;;;2.05;;
41568;SDS011;27283;52.504;13.358;2022-09-09T08:57:28;6.20;;;1.70;;
41568;SDS011;27283;52.504;13.358;2022-09-09T09:00:02;4.90;;;1.80;;
41568;SDS011;27283;52.504;13.358;2022-09-09T09:03:15;9.18;;;2.22;;
41568;SDS011;27283;52.504;13.358;2022-09-09T09:07:14;3.90;;;1.95;;
41568;SDS011;27283;52.504;13.358;2022-09-09T09:10:05;8.05;;;2.20;;
41568;SDS011;27283;52.504;13.358;2022-09-09T09:13:12;5.78;;;2.15;;
41568;SDS011;27283;52.504;13.358;2022-09-09T09:15:50;6.50;;;1.90;;
41568;SDS011;27283;52.504;13.358;2022-09-09T09:25:04;6.38;;;2.28;;
41568;SDS011;27283;52.504;13.358;2022-09-09T09:27:47;4.57;;;1.60;;
41568;SDS011;27283;52.504;13.358;2022-09-09T09:30:25;5.18;;;1.88;;
41568;SDS011;27283;52.504;13.358;2022-09-09T09:33:02;4.50;;;1.80;;
41568;SDS011;27283;52.504;13.358;2022-09-09T09:35:42;6.38;;;1.77;;
41568;SDS011;27283;52.504;13.358;2022-09-09T09:39:33;3.28;;;1.52;;
41568;SDS011;27283;52.504;13.358;2022-09-09T09:42:38;4.65;;;1.95;;
41568;SDS011;27283;52.504;13.358;2022-09-09T09:48:28;6.82;;;1.88;;
41568;SDS011;27283;52.504;13.358;2022-09-09T09:51:24;4.57;;;1.65;;
41568;SDS011;27283;52.504;13.358;2022-09-09T09:55:11;5.22;;;1.60;;
41568;SDS011;27283;52.504;13.358;2022-09-09T09:58:18;5.22;;;1.50;;
41568;SDS011;27283;52.504;13.358;2022-09-09T10:01:20;6.35;;;1.85;;
41568;SDS011;27283;52.504;13.358;2022-09-09T10:03:58;7.25;;;1.48;;
41568;SDS011;27283;52.504;13.358;2022-09-09T10:06:45;3.67;;;1.35;;
41568;SDS011;27283;52.504;13.358;2022-09-09T10:09:23;5.00;;;1.40;;
41568;SDS011;27283;52.504;13.358;2022-09-09T10:11:59;6.22;;;1.45;;
41568;SDS011;27283;52.504;13.358;2022-09-09T10:14:40;7.00;;;1.60;;
41568;SDS011;27283;52.504;13.358;2022-09-09T10:17:25;4.43;;;1.40;;
41568;SDS011;27283;52.504;13.358;2022-09-09T10:23:08;4.75;;;1.55;;
41568;SDS011;27283;52.504;13.358;2022-09-09T10:25:59;4.28;;;1.40;;
41568;SDS011;27283;52.504;13.358;2022-09-09T10:28:49;4.03;;;1.20;;
41568;SDS011;27283;52.504;13.358;2022-09-09T10:31:37;5.35;;;1.27;;
41568;SDS011;27283;52.504;13.358;2022-09-09T10:34:27;10.13;;;1.65;;
41568;SDS011;27283;52.504;13.358;2022-09-09T10:37:20;5.22;;;1.20;;
41568;SDS011;27283;52.504;13.358;2022-09-09T10:40:02;5.75;;;1.48;;
41568;SDS011;27283;52.504;13.358;2022-09-09T10:42:46;5.30;;;1.48;;
41568;SDS011;27283;52.504;13.358;2022-09-09T10:45:20;5.72;;;1.45;;
41568;SDS011;27283;52.504;13.358;2022-09-09T10:48:12;6.15;;;1.50;;
41568;SDS011;27283;52.504;13.358;2022-09-09T10:51:08;8.73;;;2.05;;
41568;SDS011;27283;52.504;13.358;2022-09-09T10:53:51;4.90;;;1.50;;
41568;SDS011;27283;52.504;13.358;2022-09-09T10:56:33;6.38;;;2.17;;
41568;SDS011;27283;52.504;13.358;2022-09-09T10:59:09;4.70;;;1.40;;
41568;SDS011;27283;52.504;13.358;2022-09-09T11:01:47;4.68;;;1.45;;
41568;SDS011;27283;52.504;13.358;2022-09-09T11:04:28;6.20;;;1.48;;
41568;SDS011;27283;52.504;13.358;2022-09-09T11:07:08;5.28;;;1.17;;
41568;SDS011;27283;52.504;13.358;2022-09-09T11:09:44;6.15;;;1.77;;
41568;SDS011;27283;52.504;13.358;2022-09-09T11:12:22;3.97;;;1.50;;
41568;SDS011;27283;52.504;13.358;2022-09-09T11:14:57;3.20;;;1.45;;
41568;SDS011;27283;52.504;13.358;2022-09-09T11:17:40;4.63;;;1.33;;
41568;SDS011;27283;52.504;13.358;2022-09-09T11:20:39;4.63;;;1.70;;
41568;SDS011;27283;52.504;13.358;2022-09-09T11:23:12;4.28;;;1.50;;
41568;SDS011;27283;52.504;13.358;2022-09-09T11:25:50;2.85;;;1.35;;
41568;SDS011;27283;52.504;13.358;2022-09-09T11:28:30;3.72;;;1.58;;
41568;SDS011;27283;52.504;13.358;2022-09-09T11:31:17;4.03;;;1.48;;
41568;SDS011;27283;52.504;13.358;2022-09-09T11:37:12;5.70;;;1.35;;
41568;SDS011;27283;52.504;13.358;2022-09-09T11:43:04;4.40;;;1.40;;
41568;SDS011;27283;52.504;13.358;2022-09-09T11:45:42;3.75;;;1.15;;
41568;SDS011;27283;52.504;13.358;2022-09-09T11:48:31;3.80;;;1.20;;
41568;SDS011;27283;52.504;13.358;2022-09-09T11:51:07;4.65;;;1.00;;
41568;SDS011;27283;52.504;13.358;2022-09-09T11:54:01;4.47;;;2.60;;
41568;SDS011;27283;52.504;13.358;2022-09-09T11:56:57;3.25;;;1.52;;
41568;SDS011;27283;52.504;13.358;2022-09-09T11:59:34;3.75;;;1.35;;
41568;SDS011;27283;52.504;13.358;2022-09-09T12:02:10;3.45;;;1.10;;
41568;SDS011;27283;52.504;13.358;2022-09-09T12:04:54;3.58;;;1.23;;
41568;SDS011;27283;52.504;13.358;2022-09-09T12:07:35;4.03;;;1.38;;
41568;SDS011;27283;52.504;13.358;2022-09-09T12:10:23;3.35;;;1.20;;
41568;SDS011;27283;52.504;13.358;2022-09-09T12:13:09;3.65;;;1.10;;
41568;SDS011;27283;52.504;13.358;2022-09-09T12:15:49;4.25;;;1.20;;
41568;SDS011;27283;52.504;13.358;2022-09-09T12:18:25;3.33;;;1.30;;
41568;SDS011;27283;52.504;13.358;2022-09-09T12:21:06;3.17;;;1.20;;
41568;SDS011;27283;52.504;13.358;2022-09-09T12:23:49;7.28;;;1.10;;
41568;SDS011;27283;52.504;13.358;2022-09-09T12:26:47;3.22;;;1.10;;
41568;SDS011;27283;52.504;13.358;2022-09-09T12:29:31;6.30;;;1.58;;
41568;SDS011;27283;52.504;13.358;2022-09-09T12:32:15;3.92;;;1.17;;
41568;SDS011;27283;52.504;13.358;2022-09-09T12:34:52;3.88;;;1.17;;
41568;SDS011;27283;52.504;13.358;2022-09-09T12:37:29;2.33;;;1.02;;
41568;SDS011;27283;52.504;13.358;2022-09-09T12:40:14;4.30;;;0.90;;
41568;SDS011;27283;52.504;13.358;2022-09-09T12:42:55;4.43;;;1.13;;
41568;SDS011;27283;52.504;13.358;2022-09-09T12:45:28;3.13;;;1.10;;
41568;SDS011;27283;52.504;13.358;2022-09-09T12:48:15;5.82;;;1.42;;
41568;SDS011;27283;52.504;13.358;2022-09-09T12:50:51;3.60;;;1.05;;
41568;SDS011;27283;52.504;13.358;2022-09-09T12:53:27;3.85;;;1.10;;
41568;SDS011;27283;52.504;13.358;2022-09-09T12:56:03;3.58;;;1.02;;
41568;SDS011;27283;52.504;13.358;2022-09-09T12:58:44;2.67;;;1.20;;
41568;SDS011;27283;52.504;13.358;2022-09-09T13:01:21;6.05;;;1.20;;
41568;SDS011;27283;52.504;13.358;2022-09-09T13:03:55;3.47;;;1.10;;
41568;SDS011;27283;52.504;13.358;2022-09-09T13:06:28;4.72;;;1.10;;
41568;SDS011;27283;52.504;13.358;2022-09-09T13:09:02;4.97;;;1.20;;
41568;SDS011;27283;52.504;13.358;2022-09-09T13:11:36;3.53;;;1.20;;
41568;SDS011;27283;52.504;13.358;2022-09-09T13:14:15;7.95;;;1.60;;
41568;SDS011;27283;52.504;13.358;2022-09-09T13:16:55;7.22;;;1.35;;
41568;SDS011;27283;52.504;13.358;2022-09-09T13:19:29;3.15;;;1.17;;
41568;SDS011;27283;52.504;13.358;2022-09-09T13:22:12;3.85;;;1.30;;
41568;SDS011;27283;52.504;13.358;2022-09-09T13:24:45;7.13;;;1.33;;
41568;SDS011;27283;52.504;13.358;2022-09-09T13:27:23;5.78;;;1.55;;
41568;SDS011;27283;52.504;13.358;2022-09-09T13:33:04;4.50;;;1.75;;
41568;SDS011;27283;52.504;13.358;2022-09-09T13:35:51;6.07;;;1.27;;
41568;SDS011;27283;52.504;13.358;2022-09-09T13:38:30;4.93;;;1.40;;
41568;SDS011;27283;52.504;13.358;2022-09-09T13:41:07;5.20;;;1.95;;
41568;SDS011;27283;52.504;13.358;2022-09-09T13:43:42;4.25;;;1.45;;
41568;SDS011;27283;52.504;13.358;2022-09-09T13:46:30;4.35;;;1.10;;
41568;SDS011;27283;52.504;13.358;2022-09-09T13:49:18;4.35;;;1.63;;
41568;SDS011;27283;52.504;13.358;2022-09-09T13:52:02;4.10;;;1.23;;
41568;SDS011;27283;52.504;13.358;2022-09-09T13:54:37;2.58;;;1.00;;
41568;SDS011;27283;52.504;13.358;2022-09-09T13:57:14;3.67;;;1.40;;
41568;SDS011;27283;52.504;13.358;2022-09-09T13:59:49;3.80;;;1.23;;
41568;SDS011;27283;52.504;13.358;2022-09-09T14:02:34;6.70;;;1.10;;
41568;SDS011;27283;52.504;13.358;2022-09-09T14:05:20;7.18;;;1.60;;
41568;SDS011;27283;52.504;13.358;2022-09-09T14:07:53;7.50;;;1.70;;
41568;SDS011;27283;52.504;13.358;2022-09-09T14:10:25;7.10;;;2.00;;
41568;SDS011;27283;52.504;13.358;2022-09-09T14:12:58;6.07;;;1.52;;
41568;SDS011;27283;52.504;13.358;2022-09-09T14:15:30;6.15;;;1.40;;
41568;SDS011;27283;52.504;13.358;2022-09-09T14:18:05;5.20;;;1.08;;
41568;SDS011;27283;52.504;13.358;2022-09-09T14:20:37;6.88;;;1.50;;
41568;SDS011;27283;52.504;13.358;2022-09-09T14:23:10;3.75;;;1.00;;
41568;SDS011;27283;52.504;13.358;2022-09-09T14:25:44;3.22;;;1.10;;
41568;SDS011;27283;52.504;13.358;2022-09-09T14:28:17;7.00;;;1.20;;
41568;SDS011;27283;52.504;13.358;2022-09-09T14:31:09;5.57;;;1.33;;
41568;SDS011;27283;52.504;13.358;2022-09-09T14:36:51;3.33;;;1.02;;
41568;SDS011;27283;52.504;13.358;2022-09-09T14:39:23;3.17;;;1.08;;
41568;SDS011;27283;52.504;13.358;2022-09-09T14:41:56;3.50;;;1.00;;
41568;SDS011;27283;52.504;13.358;2022-09-09T14:44:29;3.97;;;1.35;;
41568;SDS011;27283;52.504;13.358;2022-09-09T14:47:02;6.53;;;1.10;;
41568;SDS011;27283;52.504;13.358;2022-09-09T14:49:36;6.03;;;1.02;;
41568;SDS011;27283;52.504;13.358;2022-09-09T14:52:17;4.03;;;1.10;;
41568;SDS011;27283;52.504;13.358;2022-09-09T14:54:49;6.15;;;1.17;;
41568;SDS011;27283;52.504;13.358;2022-09-09T14:57:22;3.20;;;1.15;;
41568;SDS011;27283;52.504;13.358;2022-09-09T14:59:54;7.53;;;1.20;;
41568;SDS011;27283;52.504;13.358;2022-09-09T15:02:26;5.18;;;1.20;;
41568;SDS011;27283;52.504;13.358;2022-09-09T15:05:00;5.35;;;1.10;;
41568;SDS011;27283;52.504;13.358;2022-09-09T15:07:42;3.50;;;1.10;;
41568;SDS011;27283;52.504;13.358;2022-09-09T15:10:15;8.63;;;1.80;;
41568;SDS011;27283;52.504;13.358;2022-09-09T15:12:49;4.28;;;1.15;;
41568;SDS011;27283;52.504;13.358;2022-09-09T15:15:22;5.40;;;1.30;;
41568;SDS011;27283;52.504;13.358;2022-09-09T15:17:55;7.32;;;1.55;;
41568;SDS011;27283;52.504;13.358;2022-09-09T15:20:28;5.18;;;1.35;;
41568;SDS011;27283;52.504;13.358;2022-09-09T15:23:10;6.68;;;1.38;;
41568;SDS011;27283;52.504;13.358;2022-09-09T15:25:50;5.15;;;1.40;;
41568;SDS011;27283;52.504;13.358;2022-09-09T15:28:24;5.85;;;1.50;;
41568;SDS011;27283;52.504;13.358;2022-09-09T15:30:56;4.25;;;1.30;;
41568;SDS011;27283;52.504;13.358;2022-09-09T15:33:29;3.13;;;1.02;;
41568;SDS011;27283;52.504;13.358;2022-09-09T15:36:12;5.40;;;1.05;;
41568;SDS011;27283;52.504;13.358;2022-09-09T15:38:47;2.83;;;1.15;;
41568;SDS011;27283;52.504;13.358;2022-09-09T15:41:20;7.05;;;1.13;;
41568;SDS011;27283;52.504;13.358;2022-09-09T15:43:53;5.05;;;1.10;;
41568;SDS011;27283;52.504;13.358;2022-09-09T15:46:29;6.22;;;1.30;;
41568;SDS011;27283;52.504;13.358;2022-09-09T15:49:05;5.22;;;1.15;;
41568;SDS011;27283;52.504;13.358;2022-09-09T15:51:39;6.35;;;1.20;;
41568;SDS011;27283;52.504;13.358;2022-09-09T15:54:18;5.22;;;1.17;;
41568;SDS011;27283;52.504;13.358;2022-09-09T15:56:52;6.82;;;1.50;;
41568;SDS011;27283;52.504;13.358;2022-09-09T15:59:28;4.57;;;1.50;;
41568;SDS011;27283;52.504;13.358;2022-09-09T16:02:01;6.22;;;1.70;;
41568;SDS011;27283;52.504;13.358;2022-09-09T16:04:34;6.90;;;1.67;;
41568;SDS011;27283;52.504;13.358;2022-09-09T16:07:06;4.40;;;1.60;;
41568;SDS011;27283;52.504;13.358;2022-09-09T16:09:41;8.25;;;1.92;;
41568;SDS011;27283;52.504;13.358;2022-09-09T16:12:13;6.75;;;1.35;;
41568;SDS011;27283;52.504;13.358;2022-09-09T16:14:45;4.88;;;1.25;;
41568;SDS011;27283;52.504;13.358;2022-09-09T16:17:17;3.95;;;1.10;;
41568;SDS011;27283;52.504;13.358;2022-09-09T16:19:52;4.85;;;1.10;;
41568;SDS011;27283;52.504;13.358;2022-09-09T16:22:26;4.05;;;1.30;;
41568;SDS011;27283;52.504;13.358;2022-09-09T16:25:01;6.15;;;1.30;;
41568;SDS011;27283;52.504;13.358;2022-09-09T16:27:32;3.15;;;1.05;;
41568;SDS011;27283;52.504;13.358;2022-09-09T16:33:18;5.00;;;1.30;;
41568;SDS011;27283;52.504;13.358;2022-09-09T16:35:51;4.65;;;1.52;;
41568;SDS011;27283;52.504;13.358;2022-09-09T16:38:23;4.18;;;1.50;;
41568;SDS011;27283;52.504;13.358;2022-09-09T16:41:01;4.60;;;1.40;;
41568;SDS011;27283;52.504;13.358;2022-09-09T16:43:35;2.95;;;1.60;;
41568;SDS011;27283;52.504;13.358;2022-09-09T16:46:11;6.70;;;1.90;;
41568;SDS011;27283;52.504;13.358;2022-09-09T16:48:45;4.47;;;1.80;;
41568;SDS011;27283;52.504;13.358;2022-09-09T16:51:20;4.00;;;1.75;;
41568;SDS011;27283;52.504;13.358;2022-09-09T16:53:54;8.23;;;1.95;;
41568;SDS011;27283;52.504;13.358;2022-09-09T16:56:30;4.80;;;1.90;;
41568;SDS011;27283;52.504;13.358;2022-09-09T16:59:06;4.05;;;1.65;;
41568;SDS011;27283;52.504;13.358;2022-09-09T17:01:41;6.40;;;1.77;;
41568;SDS011;27283;52.504;13.358;2022-09-09T17:04:15;4.38;;;1.60;;
41568;SDS011;27283;52.504;13.358;2022-09-09T17:06:49;4.35;;;1.58;;
41568;SDS011;27283;52.504;13.358;2022-09-09T17:09:23;6.55;;;1.60;;
41568;SDS011;27283;52.504;13.358;2022-09-09T17:12:01;5.68;;;1.77;;
41568;SDS011;27283;52.504;13.358;2022-09-09T17:14:33;6.32;;;1.85;;
41568;SDS011;27283;52.504;13.358;2022-09-09T17:17:06;6.97;;;1.90;;
41568;SDS011;27283;52.504;13.358;2022-09-09T17:19:58;4.90;;;1.60;;
41568;SDS011;27283;52.504;13.358;2022-09-09T17:22:30;6.15;;;1.58;;
41568;SDS011;27283;52.504;13.358;2022-09-09T17:25:03;6.13;;;1.83;;
41568;SDS011;27283;52.504;13.358;2022-09-09T17:27:38;3.85;;;1.52;;
41568;SDS011;27283;52.504;13.358;2022-09-09T17:30:10;7.07;;;1.83;;
41568;SDS011;27283;52.504;13.358;2022-09-09T17:32:44;5.60;;;1.70;;
41568;SDS011;27283;52.504;13.358;2022-09-09T17:35:16;5.85;;;1.83;;
41568;SDS011;27283;52.504;13.358;2022-09-09T17:37:48;7.90;;;2.15;;
41568;SDS011;27283;52.504;13.358;2022-09-09T17:40:19;5.50;;;2.00;;
41568;SDS011;27283;52.504;13.358;2022-09-09T17:42:55;5.85;;;2.30;;
41568;SDS011;27283;52.504;13.358;2022-09-09T17:45:28;6.60;;;2.20;;
41568;SDS011;27283;52.504;13.358;2022-09-09T17:48:00;6.97;;;2.22;;
41568;SDS011;27283;52.504;13.358;2022-09-09T17:50:34;8.32;;;2.92;;
41568;SDS011;27283;52.504;13.358;2022-09-09T17:53:06;6.97;;;2.50;;
41568;SDS011;27283;52.504;13.358;2022-09-09T17:55:38;7.38;;;2.50;;
41568;SDS011;27283;52.504;13.358;2022-09-09T17:58:13;6.45;;;2.53;;
41568;SDS011;27283;52.504;13.358;2022-09-09T18:00:44;4.80;;;2.40;;
41568;SDS011;27283;52.504;13.358;2022-09-09T18:03:16;8.13;;;2.30;;
41568;SDS011;27283;52.504;13.358;2022-09-09T18:05:48;6.10;;;2.10;;
41568;SDS011;27283;52.504;13.358;2022-09-09T18:08:19;6.20;;;1.95;;
41568;SDS011;27283;52.504;13.358;2022-09-09T18:10:51;3.75;;;1.90;;
41568;SDS011;27283;52.504;13.358;2022-09-09T18:13:26;6.20;;;1.80;;
41568;SDS011;27283;52.504;13.358;2022-09-09T18:15:57;6.55;;;2.30;;
41568;SDS011;27283;52.504;13.358;2022-09-09T18:18:30;4.47;;;1.88;;
41568;SDS011;27283;52.504;13.358;2022-09-09T18:21:02;5.30;;;1.92;;
41568;SDS011;27283;52.504;13.358;2022-09-09T18:23:36;3.53;;;1.90;;
41568;SDS011;27283;52.504;13.358;2022-09-09T18:26:10;4.45;;;1.90;;
41568;SDS011;27283;52.504;13.358;2022-09-09T18:28:49;3.40;;;1.90;;
41568;SDS011;27283;52.504;13.358;2022-09-09T18:31:24;4.70;;;2.13;;
41568;SDS011;27283;52.504;13.358;2022-09-09T18:34:01;4.90;;;2.00;;
41568;SDS011;27283;52.504;13.358;2022-09-09T18:36:34;6.90;;;2.60;;